createdAt,value
2023-01-07T00:01:58.718Z,15.75
2023-01-07T00:04:44.265Z,15.13
2023-01-07T00:07:31.465Z,15.53
2023-01-07T00:10:16.877Z,14.43
2023-01-07T00:13:03.108Z,15.30
2023-01-07T00:15:48.603Z,14.35
2023-01-07T00:18:34.615Z,13.75
2023-01-07T00:21:21.607Z,12.73
2023-01-07T00:24:10.368Z,13.65
2023-01-07T00:26:55.879Z,12.60
2023-01-07T00:29:41.468Z,12.80
2023-01-07T00:32:47.449Z,11.70
2023-01-07T00:35:36.874Z,10.87
2023-01-07T00:38:22.551Z,11.50
2023-01-07T00:41:09.996Z,11.35
2023-01-07T00:43:56.383Z,10.63
2023-01-07T00:46:41.853Z,9.10
2023-01-07T00:49:27.783Z,9.27
2023-01-07T00:52:13.301Z,9.68
2023-01-07T00:54:59.194Z,8.82
2023-01-07T00:57:46.309Z,8.63
2023-01-07T01:00:32.092Z,8.70
2023-01-07T01:03:17.447Z,8.87
2023-01-07T01:06:03.737Z,8.57
2023-01-07T01:08:49.856Z,8.85
2023-01-07T01:11:35.320Z,7.95
2023-01-07T01:14:22.231Z,8.38
2023-01-07T01:17:07.813Z,8.57
2023-01-07T01:19:53.336Z,7.85
2023-01-07T01:22:38.781Z,8.10
2023-01-07T01:25:24.542Z,9.77
2023-01-07T01:28:09.837Z,8.73
2023-01-07T01:30:56.768Z,8.57
2023-01-07T01:33:42.687Z,8.18
2023-01-07T01:36:28.103Z,9.13
2023-01-07T01:39:13.494Z,8.77
2023-01-07T01:41:59.020Z,8.73
2023-01-07T01:44:49.514Z,8.53
2023-01-07T01:47:41.348Z,7.53
2023-01-07T01:50:30.372Z,8.80
2023-01-07T01:53:20.530Z,9.25
2023-01-07T01:56:11.016Z,8.07
2023-01-07T01:59:00.672Z,9.23
2023-01-07T02:01:47.248Z,8.70
2023-01-07T02:04:35.154Z,8.88
2023-01-07T02:07:21.187Z,8.45
2023-01-07T02:10:13.423Z,8.48
2023-01-07T02:13:18.764Z,8.17
2023-01-07T02:16:11.933Z,8.35
2023-01-07T02:19:18.072Z,7.72
2023-01-07T02:22:12.897Z,8.35
2023-01-07T02:25:21.517Z,8.23
2023-01-07T02:28:27.975Z,7.83
2023-01-07T02:31:39.672Z,9.32
2023-01-07T02:34:31.692Z,8.93
2023-01-07T02:37:25.054Z,9.82
2023-01-07T02:40:19.236Z,9.90
2023-01-07T02:43:16.529Z,9.50
2023-01-07T02:46:10.320Z,9.63
2023-01-07T02:48:59.822Z,9.15
2023-01-07T02:51:46.961Z,9.23
2023-01-07T02:54:32.415Z,9.63
2023-01-07T02:57:37.149Z,9.77
2023-01-07T03:00:39.423Z,8.85
2023-01-07T03:03:40.833Z,9.25
2023-01-07T03:06:43.572Z,9.07
2023-01-07T03:09:40.181Z,8.88
2023-01-07T03:12:33.571Z,8.10
2023-01-07T03:15:27.501Z,8.73
2023-01-07T03:18:19.574Z,9.43
2023-01-07T03:21:09.991Z,8.40
2023-01-07T03:23:58.730Z,8.07
2023-01-07T03:26:48.948Z,8.50
2023-01-07T03:29:35.827Z,8.15
2023-01-07T03:32:25.925Z,7.35
2023-01-07T03:35:11.527Z,8.07
2023-01-07T03:37:59.849Z,9.02
2023-01-07T03:40:45.611Z,9.97
2023-01-07T03:43:32.304Z,7.85
2023-01-07T03:46:18.061Z,8.50
2023-01-07T03:49:03.433Z,6.97
2023-01-07T03:51:49.621Z,7.82
2023-01-07T03:54:35.217Z,7.30
2023-01-07T03:57:20.486Z,8.73
2023-01-07T04:00:10.623Z,7.78
2023-01-07T04:02:56.185Z,6.80
2023-01-07T04:05:41.951Z,6.78
2023-01-07T04:08:27.195Z,7.27
2023-01-07T04:11:12.590Z,7.72
2023-01-07T04:14:00.731Z,7.22
2023-01-07T04:16:47.705Z,7.80
2023-01-07T04:19:33.439Z,7.88
2023-01-07T04:22:18.886Z,7.50
2023-01-07T04:25:04.566Z,7.30
2023-01-07T04:27:50.058Z,7.47
2023-01-07T04:30:35.938Z,7.78
2023-01-07T04:33:22.912Z,7.30
2023-01-07T04:36:09.101Z,8.03
2023-01-07T04:38:54.695Z,7.78
2023-01-07T04:41:40.161Z,8.63
2023-01-07T04:44:25.543Z,8.35
2023-01-07T04:47:10.799Z,8.77
2023-01-07T04:49:57.396Z,8.77
2023-01-07T04:52:42.832Z,9.35
2023-01-07T04:55:28.308Z,9.18
2023-01-07T04:58:13.749Z,8.82
2023-01-07T05:01:00.251Z,9.90
2023-01-07T05:03:46.021Z,9.23
2023-01-07T05:06:32.726Z,9.73
2023-01-07T05:09:18.376Z,9.88
2023-01-07T05:12:04.324Z,10.13
2023-01-07T05:14:49.570Z,9.35
2023-01-07T05:17:35.244Z,10.03
2023-01-07T05:20:20.511Z,9.68
2023-01-07T05:23:07.610Z,9.70
2023-01-07T05:25:52.794Z,10.50
2023-01-07T05:28:38.035Z,11.35
2023-01-07T05:31:23.455Z,9.77
2023-01-07T05:34:08.808Z,10.07
2023-01-07T05:36:54.294Z,10.02
2023-01-07T05:39:41.079Z,9.77
2023-01-07T05:42:26.999Z,10.27
2023-01-07T05:45:12.525Z,9.77
2023-01-07T05:47:57.803Z,10.10
2023-01-07T05:50:43.160Z,10.43
2023-01-07T05:53:28.349Z,10.20
2023-01-07T05:56:15.058Z,10.13
2023-01-07T05:59:00.655Z,10.83
2023-01-07T06:01:45.966Z,11.10
2023-01-07T06:04:31.476Z,10.27
2023-01-07T06:07:17.302Z,10.70
2023-01-07T06:10:03.414Z,10.40
2023-01-07T06:12:51.406Z,10.90
2023-01-07T06:15:37.172Z,10.60
2023-01-07T06:18:22.922Z,9.77
2023-01-07T06:21:08.359Z,10.15
2023-01-07T06:23:53.865Z,10.45
2023-01-07T06:26:39.145Z,11.03
2023-01-07T06:29:25.751Z,10.60
2023-01-07T06:32:11.005Z,10.80
2023-01-07T06:34:56.230Z,12.20
2023-01-07T06:37:41.521Z,12.75
2023-01-07T06:40:27.133Z,14.03
2023-01-07T06:43:12.882Z,13.55
2023-01-07T06:45:59.662Z,13.77
2023-01-07T06:48:45.063Z,13.98
2023-01-07T06:51:30.591Z,14.25
2023-01-07T06:54:16.194Z,14.17
2023-01-07T06:57:01.710Z,14.88
2023-01-07T06:59:47.030Z,13.73
2023-01-07T07:02:33.694Z,15.20
2023-01-07T07:05:19.374Z,15.15
2023-01-07T07:08:05.196Z,16.67
2023-01-07T07:10:50.461Z,17.05
2023-01-07T07:13:36.090Z,17.77
2023-01-07T07:16:24.132Z,18.10
2023-01-07T07:19:11.062Z,17.23
2023-01-07T07:21:57.032Z,17.83
2023-01-07T07:24:42.470Z,16.80
2023-01-07T07:27:27.730Z,17.40
2023-01-07T07:30:13.763Z,16.65
2023-01-07T07:33:02.011Z,16.38
2023-01-07T07:35:49.489Z,16.03
2023-01-07T07:38:35.160Z,17.63
2023-01-07T07:41:20.287Z,22.35
2023-01-07T07:44:06.144Z,25.65
2023-01-07T07:46:51.548Z,25.45
2023-01-07T07:49:37.212Z,24.60
2023-01-07T07:52:23.947Z,25.23
2023-01-07T07:55:20.687Z,24.75
2023-01-07T07:58:12.355Z,25.10
2023-01-07T08:00:58.063Z,25.42
2023-01-07T08:03:43.887Z,24.33
2023-01-07T08:06:29.305Z,24.42
2023-01-07T08:09:16.077Z,23.95
2023-01-07T08:12:01.554Z,23.92
2023-01-07T08:14:46.960Z,23.80
2023-01-07T08:17:32.310Z,24.53
2023-01-07T08:20:17.955Z,23.67
2023-01-07T08:23:06.376Z,25.33
2023-01-07T08:25:53.459Z,26.02
2023-01-07T08:28:39.359Z,28.10
2023-01-07T08:31:25.302Z,28.80
2023-01-07T08:34:11.072Z,29.45
2023-01-07T08:36:56.844Z,31.48
2023-01-07T08:39:42.626Z,31.38
2023-01-07T08:42:30.326Z,31.83
2023-01-07T08:45:16.293Z,33.40
2023-01-07T08:48:02.133Z,34.20
2023-01-07T08:50:50.565Z,35.45
2023-01-07T08:53:36.159Z,34.35
2023-01-07T08:56:22.889Z,33.83
2023-01-07T08:59:09.727Z,32.67
2023-01-07T09:01:55.509Z,32.22
2023-01-07T09:04:41.427Z,30.95
2023-01-07T09:07:26.689Z,30.38
2023-01-07T09:10:12.124Z,30.27
2023-01-07T09:12:57.720Z,30.63
2023-01-07T09:15:45.268Z,29.92
2023-01-07T09:18:30.954Z,28.90
2023-01-07T09:21:16.360Z,29.77
2023-01-07T09:24:01.690Z,34.40
2023-01-07T09:26:47.367Z,32.87
2023-01-07T09:29:33.154Z,40.38
2023-01-07T09:32:20.147Z,36.53
2023-01-07T09:35:06.653Z,41.47
2023-01-07T09:37:52.352Z,43.35
2023-01-07T09:40:40.119Z,46.07
2023-01-07T09:44:00.127Z,47.03
2023-01-07T09:46:35.055Z,48.75
2023-01-07T09:49:26.003Z,49.42
2023-01-07T09:52:16.103Z,46.67
2023-01-07T09:55:07.926Z,47.87
2023-01-07T09:57:53.580Z,49.28
2023-01-07T10:00:51.272Z,48.58
2023-01-07T10:03:53.720Z,47.83
2023-01-07T10:06:47.159Z,45.42
2023-01-07T10:09:43.239Z,41.03
2023-01-07T10:12:33.246Z,42.75
2023-01-07T10:15:35.112Z,40.08
2023-01-07T10:18:43.472Z,37.92
2023-01-07T10:21:39.127Z,36.85
2023-01-07T10:24:28.718Z,34.23
2023-01-07T10:27:18.593Z,33.00
2023-01-07T10:30:11.506Z,28.85
2023-01-07T10:33:01.472Z,22.98
2023-01-07T10:35:48.590Z,22.50
2023-01-07T10:38:37.593Z,20.87
2023-01-07T10:41:28.913Z,19.63
2023-01-07T10:44:41.945Z,18.10
2023-01-07T10:47:43.725Z,15.10
2023-01-07T10:50:41.887Z,14.07
2023-01-07T10:53:37.478Z,12.23
2023-01-07T10:56:30.388Z,12.38
2023-01-07T10:59:18.226Z,12.13
2023-01-07T11:02:04.836Z,12.32
2023-01-07T11:04:50.427Z,11.20
2023-01-07T11:07:43.639Z,11.57
2023-01-07T11:10:33.264Z,11.93
2023-01-07T11:13:25.667Z,11.35
2023-01-07T11:16:13.910Z,11.52
2023-01-07T11:19:03.954Z,12.20
2023-01-07T11:21:50.470Z,12.07
2023-01-07T11:24:36.560Z,12.55
2023-01-07T11:27:24.544Z,12.55
2023-01-07T11:30:23.327Z,12.25
2023-01-07T11:33:21.548Z,11.80
2023-01-07T11:36:08.696Z,12.17
2023-01-07T11:39:09.323Z,11.65
2023-01-07T11:41:57.691Z,11.32
2023-01-07T11:44:43.285Z,11.43
2023-01-07T11:47:30.143Z,12.15
2023-01-07T11:50:27.774Z,11.07
2023-01-07T11:53:34.209Z,11.95
2023-01-07T11:56:24.814Z,11.80
2023-01-07T11:59:28.233Z,11.98
2023-01-07T12:02:25.494Z,11.73
2023-01-07T12:05:23.022Z,12.23
2023-01-07T12:08:19.528Z,12.05
2023-01-07T12:11:08.864Z,11.45
2023-01-07T12:13:54.810Z,11.10
2023-01-07T12:16:40.702Z,11.10
2023-01-07T12:19:42.254Z,10.57
2023-01-07T12:22:39.840Z,10.45
2023-01-07T12:25:34.635Z,10.68
2023-01-07T12:28:33.422Z,11.05
2023-01-07T12:31:27.596Z,10.50
2023-01-07T12:34:26.498Z,9.77
2023-01-07T12:37:24.521Z,9.90
2023-01-07T12:40:27.098Z,10.52
2023-01-07T12:43:17.223Z,9.43
2023-01-07T12:46:04.851Z,9.70
2023-01-07T12:49:02.316Z,8.90
2023-01-07T12:51:55.330Z,9.20
2023-01-07T12:54:48.920Z,9.73
2023-01-07T12:57:38.279Z,10.13
2023-01-07T13:00:27.638Z,10.35
2023-01-07T13:03:24.803Z,9.63
2023-01-07T13:06:16.219Z,9.35
2023-01-07T13:09:09.158Z,10.43
2023-01-07T13:12:40.537Z,9.90
2023-01-07T13:15:29.288Z,10.63
2023-01-07T13:18:16.793Z,11.97
2023-01-07T13:21:07.673Z,13.52
2023-01-07T13:24:14.156Z,14.90
2023-01-07T13:27:13.334Z,16.65
2023-01-07T13:30:11.133Z,20.65
2023-01-07T13:33:22.736Z,25.67
2023-01-07T13:36:21.491Z,22.65
2023-01-07T13:39:20.109Z,21.85
2023-01-07T13:42:19.453Z,21.83
2023-01-07T13:45:14.375Z,22.58
2023-01-07T13:48:03.295Z,26.60
2023-01-07T13:50:59.118Z,26.75
2023-01-07T13:53:46.993Z,29.25
2023-01-07T13:56:38.426Z,32.88
2023-01-07T13:59:48.115Z,33.15
2023-01-07T14:02:55.211Z,33.40
2023-01-07T14:05:40.601Z,31.55
2023-01-07T14:08:29.137Z,30.50
2023-01-07T14:11:14.645Z,31.40
2023-01-07T14:14:07.187Z,29.65
2023-01-07T14:17:00.909Z,28.03
2023-01-07T14:19:50.364Z,26.00
2023-01-07T14:22:45.155Z,29.15
2023-01-07T14:25:43.039Z,31.15
2023-01-07T14:28:48.752Z,31.60
2023-01-07T14:31:34.915Z,30.83
2023-01-07T14:34:24.041Z,29.98
2023-01-07T14:37:30.118Z,28.92
2023-01-07T14:40:58.347Z,29.17
2023-01-07T14:44:02.459Z,28.67
2023-01-07T14:46:49.824Z,26.40
2023-01-07T14:49:57.135Z,27.83
2023-01-07T14:53:04.883Z,25.67
2023-01-07T14:56:04.539Z,25.80
2023-01-07T14:59:11.529Z,26.15
2023-01-07T15:02:31.411Z,25.87
2023-01-07T15:05:39.395Z,25.08
2023-01-07T15:08:45.730Z,26.98
2023-01-07T15:11:51.912Z,28.50
2023-01-07T15:15:02.552Z,28.08
2023-01-07T15:17:48.104Z,28.53
2023-01-07T15:20:44.277Z,32.47
2023-01-07T15:23:37.805Z,33.42
2023-01-07T15:26:32.130Z,35.17
2023-01-07T15:29:25.764Z,36.33
2023-01-07T15:32:23.576Z,37.27
2023-01-07T15:35:13.408Z,35.78
2023-01-07T15:37:59.392Z,35.58
2023-01-07T15:40:47.050Z,32.70
2023-01-07T15:43:33.622Z,31.17
2023-01-07T15:46:21.253Z,31.00
2023-01-07T15:49:17.346Z,28.35
2023-01-07T15:55:28.817Z,29.02
2023-01-07T15:58:17.584Z,29.30
2023-01-07T16:01:04.669Z,29.20
2023-01-07T16:03:52.601Z,29.92
2023-01-07T16:06:47.074Z,29.90
2023-01-07T16:09:34.258Z,30.55
2023-01-07T16:12:29.124Z,31.98
2023-01-07T16:15:27.620Z,32.93
2023-01-07T16:18:19.183Z,32.38
2023-01-07T16:21:07.296Z,33.50
2023-01-07T16:23:54.618Z,35.53
2023-01-07T16:26:43.121Z,34.75
2023-01-07T16:29:44.597Z,34.10
2023-01-07T16:32:30.279Z,35.72
2023-01-07T16:35:20.417Z,36.95
2023-01-07T16:38:06.510Z,37.38
2023-01-07T16:40:53.938Z,36.97
2023-01-07T16:43:44.293Z,37.73
2023-01-07T16:46:31.369Z,40.35
2023-01-07T16:49:21.862Z,40.35
2023-01-07T16:52:14.124Z,37.65
2023-01-07T16:55:00.137Z,41.20
2023-01-07T16:57:48.189Z,41.47
2023-01-07T17:00:34.257Z,41.65
2023-01-07T17:03:21.277Z,42.28
2023-01-07T17:06:08.270Z,40.28
2023-01-07T17:08:55.696Z,42.28
2023-01-07T17:11:41.764Z,42.80
2023-01-07T17:14:49.023Z,40.00
2023-01-07T17:17:35.167Z,40.47
2023-01-07T17:20:22.642Z,39.42
2023-01-07T17:23:31.791Z,39.80
2023-01-07T17:26:21.522Z,39.60
2023-01-07T17:29:13.307Z,40.17
2023-01-07T17:32:00.875Z,40.30
2023-01-07T17:34:46.438Z,39.67
2023-01-07T17:37:32.929Z,41.08
2023-01-07T17:40:20.656Z,40.07
2023-01-07T17:43:24.249Z,40.55
2023-01-07T17:46:11.963Z,40.55
2023-01-07T17:49:01.003Z,38.83
2023-01-07T17:51:48.814Z,39.83
2023-01-07T17:54:35.525Z,40.17
2023-01-07T17:57:21.605Z,40.65
2023-01-07T18:00:14.390Z,39.70
2023-01-07T18:03:00.470Z,40.75
2023-01-07T18:05:47.529Z,40.65
2023-01-07T18:08:33.253Z,41.83
2023-01-07T18:11:39.340Z,41.63
2023-01-07T18:14:24.946Z,42.58
2023-01-07T18:17:10.694Z,42.30
2023-01-07T18:19:57.030Z,42.97
2023-01-07T18:22:44.081Z,40.50
2023-01-07T18:25:30.717Z,43.38
2023-01-07T18:28:16.177Z,41.88
2023-01-07T18:31:01.339Z,40.50
2023-01-07T18:33:46.840Z,39.83
2023-01-07T18:36:32.441Z,39.53
2023-01-07T18:39:20.726Z,39.35
2023-01-07T18:42:08.174Z,37.80
2023-01-07T18:44:54.000Z,38.33
2023-01-07T18:47:39.327Z,37.08
2023-01-07T18:50:24.921Z,35.70
2023-01-07T18:53:11.277Z,35.08
2023-01-07T18:56:01.926Z,34.30
2023-01-07T18:58:48.213Z,33.15
2023-01-07T19:01:33.850Z,33.67
2023-01-07T19:04:19.573Z,32.30
2023-01-07T19:07:05.744Z,32.00
2023-01-07T19:09:51.368Z,32.08
2023-01-07T19:12:38.221Z,30.60
2023-01-07T19:15:23.639Z,29.42
2023-01-07T19:18:09.377Z,30.47
2023-01-07T19:20:55.365Z,29.45
2023-01-07T19:23:41.295Z,29.42
2023-01-07T19:26:27.428Z,30.15
2023-01-07T19:29:15.295Z,29.42
2023-01-07T19:32:00.938Z,31.20
2023-01-07T19:34:46.608Z,30.55
2023-01-07T19:37:32.030Z,30.20
2023-01-07T19:40:17.982Z,29.52
2023-01-07T19:43:03.720Z,28.45
2023-01-07T19:45:55.537Z,29.87
2023-01-07T19:48:42.000Z,29.65
2023-01-07T19:51:31.059Z,28.35
2023-01-07T19:54:17.606Z,28.00
2023-01-07T19:57:03.316Z,28.00
2023-01-07T19:59:48.682Z,27.63
2023-01-07T20:02:36.935Z,26.30
2023-01-07T20:05:25.936Z,26.98
2023-01-07T20:08:12.028Z,25.35
2023-01-07T20:10:59.425Z,25.10
2023-01-07T20:13:46.783Z,24.40
2023-01-07T20:16:32.227Z,25.27
2023-01-07T20:19:19.277Z,25.98
2023-01-07T20:22:05.508Z,24.40
2023-01-07T20:24:51.109Z,23.67
2023-01-07T20:27:39.946Z,24.17
2023-01-07T20:30:26.179Z,24.80
2023-01-07T20:33:11.897Z,25.52
2023-01-07T20:36:03.884Z,25.75
2023-01-07T20:38:50.572Z,26.80
2023-01-07T20:41:43.139Z,25.30
2023-01-07T20:44:28.502Z,25.67
2023-01-07T20:47:16.774Z,28.30
2023-01-07T20:50:02.670Z,27.65
2023-01-07T20:52:49.992Z,27.40
2023-01-07T20:55:35.750Z,27.20
2023-01-07T20:58:21.177Z,26.75
2023-01-07T21:01:10.752Z,26.73
2023-01-07T21:03:56.550Z,24.92
2023-01-07T21:06:42.216Z,26.90
2023-01-07T21:09:28.965Z,26.77
2023-01-07T21:12:14.569Z,27.30
2023-01-07T21:15:00.008Z,26.65
2023-01-07T21:17:45.534Z,29.50
2023-01-07T21:20:30.945Z,28.67
2023-01-07T21:23:16.437Z,27.43
2023-01-07T21:26:03.542Z,29.17
2023-01-07T21:28:56.726Z,28.48
2023-01-07T21:31:43.539Z,28.80
2023-01-07T21:34:31.933Z,29.23
2023-01-07T21:37:18.073Z,29.53
2023-01-07T21:40:04.270Z,28.75
2023-01-07T21:42:51.414Z,28.73
2023-01-07T21:45:37.364Z,28.08
2023-01-07T21:48:22.901Z,25.50
2023-01-07T21:51:11.034Z,25.93
2023-01-07T21:53:58.123Z,26.05
2023-01-07T21:56:43.841Z,25.13
2023-01-07T21:59:30.787Z,24.40
2023-01-07T22:02:18.863Z,23.52
2023-01-07T22:05:05.750Z,24.33
2023-01-07T22:07:51.433Z,22.90
2023-01-07T22:10:41.454Z,22.70
2023-01-07T22:13:27.585Z,21.40
2023-01-07T22:16:14.713Z,20.77
2023-01-07T22:19:01.963Z,20.60
2023-01-07T22:21:47.655Z,19.10
2023-01-07T22:24:37.173Z,19.40
2023-01-07T22:27:22.897Z,17.75
2023-01-07T22:30:10.777Z,18.65
2023-01-07T22:32:57.727Z,18.10
2023-01-07T22:35:44.129Z,18.05
2023-01-07T22:38:31.304Z,17.70
2023-01-07T22:41:17.124Z,18.00
2023-01-07T22:44:06.289Z,18.45
2023-01-07T22:46:53.343Z,19.00
2023-01-07T22:49:41.899Z,18.63
2023-01-07T22:52:27.565Z,18.67
2023-01-07T22:55:12.975Z,20.00
2023-01-07T22:57:58.843Z,18.98
2023-01-07T23:01:07.030Z,18.23
2023-01-07T23:03:52.467Z,17.67
2023-01-07T23:06:39.363Z,17.00
2023-01-07T23:09:25.008Z,17.02
2023-01-07T23:12:12.139Z,16.90
2023-01-07T23:14:57.530Z,16.53
2023-01-07T23:17:42.972Z,16.25
2023-01-07T23:20:28.545Z,16.80
2023-01-07T23:23:15.513Z,16.75
2023-01-07T23:26:01.151Z,17.58
2023-01-07T23:28:46.557Z,15.93
2023-01-07T23:31:33.500Z,16.98
2023-01-07T23:34:19.542Z,16.58
2023-01-07T23:37:05.367Z,15.73
2023-01-07T23:39:52.844Z,14.57
2023-01-07T23:42:38.635Z,14.37
2023-01-07T23:45:24.024Z,14.40
2023-01-07T23:48:09.444Z,13.70
2023-01-07T23:50:55.473Z,14.20
2023-01-07T23:53:41.643Z,13.35
2023-01-07T23:56:28.809Z,13.40
2023-01-07T23:59:14.535Z,14.00
